sensor_id;sensor_type;location;lat;lon;timestamp;pressure;altitude;pressure_sealevel;temperature;humidity
40372;BME280;28564;53.346;-6.554;2023-09-19T00:01:12;99358.82;;;15.49;49.28
40372;BME280;28564;53.346;-6.554;2023-09-19T00:03:39;99359.95;;;15.40;49.76
40372;BME280;28564;53.346;-6.554;2023-09-19T00:06:06;99364.62;;;15.28;50.38
40372;BME280;28564;53.346;-6.554;2023-09-19T00:08:34;99359.50;;;15.22;50.73
40372;BME280;28564;53.346;-6.554;2023-09-19T00:11:00;99357.13;;;15.40;50.88
40372;BME280;28564;53.346;-6.554;2023-09-19T00:13:28;99358.86;;;15.42;50.93
40372;BME280;28564;53.346;-6.554;2023-09-19T00:15:54;99361.62;;;15.41;51.06
40372;BME280;28564;53.346;-6.554;2023-09-19T00:18:21;99358.30;;;15.60;51.33
40372;BME280;28564;53.346;-6.554;2023-09-19T00:20:48;99358.71;;;15.34;51.46
40372;BME280;28564;53.346;-6.554;2023-09-19T00:23:15;99357.73;;;15.60;51.54
40372;BME280;28564;53.346;-6.554;2023-09-19T00:25:42;99357.67;;;15.63;51.61
40372;BME280;28564;53.346;-6.554;2023-09-19T00:28:09;99359.19;;;15.42;51.58
40372;BME280;28564;53.346;-6.554;2023-09-19T00:30:37;99352.41;;;15.44;51.66
40372;BME280;28564;53.346;-6.554;2023-09-19T00:33:04;99350.36;;;15.45;51.70
40372;BME280;28564;53.346;-6.554;2023-09-19T00:35:32;99349.44;;;15.46;51.97
40372;BME280;28564;53.346;-6.554;2023-09-19T00:37:59;99352.67;;;15.48;51.97
40372;BME280;28564;53.346;-6.554;2023-09-19T00:40:25;99342.98;;;15.74;52.08
40372;BME280;28564;53.346;-6.554;2023-09-19T00:42:57;99339.58;;;15.50;52.22
40372;BME280;28564;53.346;-6.554;2023-09-19T00:45:25;99333.13;;;15.50;52.24
40372;BME280;28564;53.346;-6.554;2023-09-19T00:47:52;99332.22;;;15.51;52.29
40372;BME280;28564;53.346;-6.554;2023-09-19T00:50:21;99325.00;;;15.55;52.32
40372;BME280;28564;53.346;-6.554;2023-09-19T00:52:52;99325.94;;;15.36;52.33
40372;BME280;28564;53.346;-6.554;2023-09-19T00:55:20;99321.03;;;15.56;52.33
40372;BME280;28564;53.346;-6.554;2023-09-19T00:57:47;99315.53;;;15.53;52.55
40372;BME280;28564;53.346;-6.554;2023-09-19T01:00:15;99309.61;;;15.55;52.57
40372;BME280;28564;53.346;-6.554;2023-09-19T01:02:43;99302.92;;;15.54;52.61
40372;BME280;28564;53.346;-6.554;2023-09-19T01:05:11;99297.82;;;15.56;52.59
40372;BME280;28564;53.346;-6.554;2023-09-19T01:07:39;99287.84;;;15.61;52.52
40372;BME280;28564;53.346;-6.554;2023-09-19T01:10:09;99284.91;;;15.89;52.39
40372;BME280;28564;53.346;-6.554;2023-09-19T01:12:47;99284.56;;;15.63;52.35
40372;BME280;28564;53.346;-6.554;2023-09-19T01:15:21;99278.04;;;15.64;52.31
40372;BME280;28564;53.346;-6.554;2023-09-19T01:17:59;99266.72;;;15.65;52.37
40372;BME280;28564;53.346;-6.554;2023-09-19T01:20:37;99261.71;;;15.63;52.14
40372;BME280;28564;53.346;-6.554;2023-09-19T01:23:13;99252.02;;;15.60;52.29
40372;BME280;28564;53.346;-6.554;2023-09-19T01:25:58;99247.12;;;15.39;52.41
40372;BME280;28564;53.346;-6.554;2023-09-19T01:28:32;99243.84;;;15.64;52.43
40372;BME280;28564;53.346;-6.554;2023-09-19T01:31:02;99230.64;;;15.65;52.52
40372;BME280;28564;53.346;-6.554;2023-09-19T01:33:54;99224.61;;;15.44;52.42
40372;BME280;28564;53.346;-6.554;2023-09-19T01:36:21;99213.86;;;15.44;52.34
40372;BME280;28564;53.346;-6.554;2023-09-19T01:38:48;99208.78;;;15.90;52.35
40372;BME280;28564;53.346;-6.554;2023-09-19T01:41:19;99198.03;;;15.90;52.57
40372;BME280;28564;53.346;-6.554;2023-09-19T01:43:50;99185.40;;;15.64;52.54
40372;BME280;28564;53.346;-6.554;2023-09-19T01:46:23;99180.36;;;15.64;52.60
40372;BME280;28564;53.346;-6.554;2023-09-19T01:49:01;99169.99;;;15.64;52.66
40372;BME280;28564;53.346;-6.554;2023-09-19T01:51:37;99163.66;;;15.66;52.78
40372;BME280;28564;53.346;-6.554;2023-09-19T01:54:10;99147.23;;;15.43;52.98
40372;BME280;28564;53.346;-6.554;2023-09-19T01:56:44;99137.03;;;15.68;52.96
40372;BME280;28564;53.346;-6.554;2023-09-19T01:59:17;99135.94;;;15.47;53.04
40372;BME280;28564;53.346;-6.554;2023-09-19T02:01:48;99132.57;;;15.48;53.15
40372;BME280;28564;53.346;-6.554;2023-09-19T02:04:16;99132.37;;;15.72;53.23
40372;BME280;28564;53.346;-6.554;2023-09-19T02:06:43;99127.71;;;15.76;53.39
40372;BME280;28564;53.346;-6.554;2023-09-19T02:09:10;99124.87;;;15.80;53.26
40372;BME280;28564;53.346;-6.554;2023-09-19T02:11:37;99122.87;;;15.62;53.26
40372;BME280;28564;53.346;-6.554;2023-09-19T02:14:04;99118.61;;;15.67;53.32
40372;BME280;28564;53.346;-6.554;2023-09-19T02:16:31;99110.53;;;15.72;53.29
40372;BME280;28564;53.346;-6.554;2023-09-19T02:18:58;99102.54;;;15.99;53.31
40372;BME280;28564;53.346;-6.554;2023-09-19T02:21:26;99091.30;;;15.77;53.16
40372;BME280;28564;53.346;-6.554;2023-09-19T02:23:53;99080.93;;;15.80;53.21
40372;BME280;28564;53.346;-6.554;2023-09-19T02:26:20;99066.20;;;15.80;53.12
40372;BME280;28564;53.346;-6.554;2023-09-19T02:28:47;99059.26;;;15.80;53.13
40372;BME280;28564;53.346;-6.554;2023-09-19T02:31:14;99052.38;;;15.80;53.18
40372;BME280;28564;53.346;-6.554;2023-09-19T02:33:41;99048.89;;;15.80;53.20
40372;BME280;28564;53.346;-6.554;2023-09-19T02:36:08;99041.78;;;15.80;53.30
40372;BME280;28564;53.346;-6.554;2023-09-19T02:38:35;99034.40;;;15.81;53.36
40372;BME280;28564;53.346;-6.554;2023-09-19T02:41:02;99023.94;;;15.81;53.36
40372;BME280;28564;53.346;-6.554;2023-09-19T02:43:30;99008.82;;;15.80;53.35
40372;BME280;28564;53.346;-6.554;2023-09-19T02:45:57;99000.09;;;15.83;53.38
40372;BME280;28564;53.346;-6.554;2023-09-19T02:48:24;98996.34;;;16.07;53.39
40372;BME280;28564;53.346;-6.554;2023-09-19T02:50:51;98987.37;;;15.87;53.54
40372;BME280;28564;53.346;-6.554;2023-09-19T02:53:18;98976.70;;;15.90;53.58
40372;BME280;28564;53.346;-6.554;2023-09-19T02:55:46;98967.69;;;15.94;53.49
40372;BME280;28564;53.346;-6.554;2023-09-19T02:58:13;98954.50;;;16.18;53.52
40372;BME280;28564;53.346;-6.554;2023-09-19T03:00:40;98946.64;;;15.99;53.57
40372;BME280;28564;53.346;-6.554;2023-09-19T03:03:09;98928.73;;;16.01;53.62
40372;BME280;28564;53.346;-6.554;2023-09-19T03:05:36;98923.78;;;16.24;53.63
40372;BME280;28564;53.346;-6.554;2023-09-19T03:08:04;98909.43;;;16.04;53.70
40372;BME280;28564;53.346;-6.554;2023-09-19T03:10:31;98901.31;;;15.83;53.78
40372;BME280;28564;53.346;-6.554;2023-09-19T03:12:59;98889.84;;;16.08;53.83
40372;BME280;28564;53.346;-6.554;2023-09-19T03:15:26;98883.16;;;16.09;53.92
40372;BME280;28564;53.346;-6.554;2023-09-19T03:17:53;98868.68;;;16.11;53.96
40372;BME280;28564;53.346;-6.554;2023-09-19T03:20:20;98854.51;;;16.13;54.17
40372;BME280;28564;53.346;-6.554;2023-09-19T03:22:47;98839.74;;;16.17;54.22
40372;BME280;28564;53.346;-6.554;2023-09-19T03:25:14;98829.25;;;16.01;54.40
40372;BME280;28564;53.346;-6.554;2023-09-19T03:27:41;98821.85;;;16.06;54.24
40372;BME280;28564;53.346;-6.554;2023-09-19T03:30:09;98804.71;;;16.33;54.25
40372;BME280;28564;53.346;-6.554;2023-09-19T03:32:36;98798.55;;;16.38;54.19
40372;BME280;28564;53.346;-6.554;2023-09-19T03:35:04;98785.63;;;16.17;54.18
40372;BME280;28564;53.346;-6.554;2023-09-19T03:37:32;98771.80;;;16.44;54.31
40372;BME280;28564;53.346;-6.554;2023-09-19T03:39:59;98766.77;;;15.95;54.41
40372;BME280;28564;53.346;-6.554;2023-09-19T03:42:26;98755.10;;;16.45;54.66
40372;BME280;28564;53.346;-6.554;2023-09-19T03:44:53;98746.25;;;16.49;54.74
40372;BME280;28564;53.346;-6.554;2023-09-19T03:47:20;98735.71;;;16.29;54.84
40372;BME280;28564;53.346;-6.554;2023-09-19T03:49:47;98728.07;;;16.32;55.08
40372;BME280;28564;53.346;-6.554;2023-09-19T03:52:14;98720.93;;;16.59;55.20
40372;BME280;28564;53.346;-6.554;2023-09-19T03:54:41;98718.61;;;16.66;55.20
40372;BME280;28564;53.346;-6.554;2023-09-19T03:57:08;98696.22;;;16.19;55.40
40372;BME280;28564;53.346;-6.554;2023-09-19T03:59:36;98701.52;;;16.25;55.49
40372;BME280;28564;53.346;-6.554;2023-09-19T04:02:03;98682.64;;;16.57;55.51
40372;BME280;28564;53.346;-6.554;2023-09-19T04:04:30;98686.44;;;16.61;55.59
40372;BME280;28564;53.346;-6.554;2023-09-19T04:06:57;98679.15;;;16.63;55.76
40372;BME280;28564;53.346;-6.554;2023-09-19T04:09:24;98676.97;;;16.68;55.87
40372;BME280;28564;53.346;-6.554;2023-09-19T04:11:51;98663.45;;;16.96;55.98
40372;BME280;28564;53.346;-6.554;2023-09-19T04:14:18;98654.18;;;16.81;56.01
40372;BME280;28564;53.346;-6.554;2023-09-19T04:16:45;98645.22;;;16.88;55.88
40372;BME280;28564;53.346;-6.554;2023-09-19T04:19:12;98643.99;;;16.66;56.01
40372;BME280;28564;53.346;-6.554;2023-09-19T04:21:40;98633.57;;;16.64;56.28
40372;BME280;28564;53.346;-6.554;2023-09-19T04:24:07;98626.08;;;16.73;56.20
40372;BME280;28564;53.346;-6.554;2023-09-19T04:26:34;98626.92;;;16.76;56.37
40372;BME280;28564;53.346;-6.554;2023-09-19T04:29:01;98611.61;;;17.32;56.25
40372;BME280;28564;53.346;-6.554;2023-09-19T04:31:28;98612.88;;;16.82;56.50
40372;BME280;28564;53.346;-6.554;2023-09-19T04:33:55;98600.50;;;16.90;56.48
40372;BME280;28564;53.346;-6.554;2023-09-19T04:36:22;98608.08;;;17.44;56.49
40372;BME280;28564;53.346;-6.554;2023-09-19T04:38:50;98592.65;;;17.27;56.52
40372;BME280;28564;53.346;-6.554;2023-09-19T04:41:17;98585.14;;;17.05;56.54
40372;BME280;28564;53.346;-6.554;2023-09-19T04:43:44;98577.76;;;16.93;56.48
40372;BME280;28564;53.346;-6.554;2023-09-19T04:46:11;98585.79;;;17.17;56.66
40372;BME280;28564;53.346;-6.554;2023-09-19T04:48:39;98572.91;;;17.14;56.90
40372;BME280;28564;53.346;-6.554;2023-09-19T04:51:06;98585.39;;;17.50;56.74
40372;BME280;28564;53.346;-6.554;2023-09-19T04:53:33;98578.45;;;17.29;56.87
40372;BME280;28564;53.346;-6.554;2023-09-19T04:56:00;98575.94;;;17.35;56.88
40372;BME280;28564;53.346;-6.554;2023-09-19T04:58:27;98567.82;;;17.42;56.94
40372;BME280;28564;53.346;-6.554;2023-09-19T05:00:54;98555.59;;;17.43;57.12
40372;BME280;28564;53.346;-6.554;2023-09-19T05:03:21;98561.66;;;17.49;57.18
40372;BME280;28564;53.346;-6.554;2023-09-19T05:05:49;98552.88;;;17.59;57.04
40372;BME280;28564;53.346;-6.554;2023-09-19T05:08:16;98556.01;;;17.61;57.19
40372;BME280;28564;53.346;-6.554;2023-09-19T05:10:43;98559.56;;;17.68;57.27
40372;BME280;28564;53.346;-6.554;2023-09-19T05:13:10;98564.36;;;17.76;57.24
40372;BME280;28564;53.346;-6.554;2023-09-19T05:15:37;98547.66;;;17.78;57.46
40372;BME280;28564;53.346;-6.554;2023-09-19T05:18:05;98547.78;;;17.88;57.31
40372;BME280;28564;53.346;-6.554;2023-09-19T05:20:33;98545.59;;;17.86;57.62
40372;BME280;28564;53.346;-6.554;2023-09-19T05:23:01;98540.16;;;17.73;57.53
40372;BME280;28564;53.346;-6.554;2023-09-19T05:25:29;98544.51;;;17.86;57.42
40372;BME280;28564;53.346;-6.554;2023-09-19T05:27:57;98538.81;;;17.78;57.83
40372;BME280;28564;53.346;-6.554;2023-09-19T05:30:26;98535.16;;;18.10;57.79
40372;BME280;28564;53.346;-6.554;2023-09-19T05:32:53;98532.19;;;17.95;57.70
40372;BME280;28564;53.346;-6.554;2023-09-19T05:35:21;98530.92;;;18.22;57.75
40372;BME280;28564;53.346;-6.554;2023-09-19T05:37:51;98542.38;;;17.74;57.82
40372;BME280;28564;53.346;-6.554;2023-09-19T05:40:18;98527.38;;;18.01;58.11
40372;BME280;28564;53.346;-6.554;2023-09-19T05:42:46;98526.60;;;17.80;58.10
40372;BME280;28564;53.346;-6.554;2023-09-19T05:45:14;98529.94;;;17.82;58.19
40372;BME280;28564;53.346;-6.554;2023-09-19T05:47:41;98519.47;;;18.16;58.11
40372;BME280;28564;53.346;-6.554;2023-09-19T05:50:09;98513.82;;;18.08;58.52
40372;BME280;28564;53.346;-6.554;2023-09-19T05:52:37;98530.47;;;17.94;58.68
40372;BME280;28564;53.346;-6.554;2023-09-19T05:55:05;98514.05;;;17.99;58.70
40372;BME280;28564;53.346;-6.554;2023-09-19T05:57:32;98523.50;;;18.39;58.44
40372;BME280;28564;53.346;-6.554;2023-09-19T05:59:59;98521.57;;;18.43;58.33
40372;BME280;28564;53.346;-6.554;2023-09-19T06:02:26;98521.05;;;18.16;58.42
40372;BME280;28564;53.346;-6.554;2023-09-19T06:04:53;98511.47;;;18.52;58.43
40372;BME280;28564;53.346;-6.554;2023-09-19T06:07:20;98527.21;;;18.24;58.53
40372;BME280;28564;53.346;-6.554;2023-09-19T06:09:47;98518.61;;;18.20;58.74
40372;BME280;28564;53.346;-6.554;2023-09-19T06:12:14;98526.62;;;18.20;58.95
40372;BME280;28564;53.346;-6.554;2023-09-19T06:14:42;98524.10;;;18.32;58.90
40372;BME280;28564;53.346;-6.554;2023-09-19T06:17:09;98520.38;;;18.43;58.56
40372;BME280;28564;53.346;-6.554;2023-09-19T06:19:36;98524.14;;;18.50;58.59
40372;BME280;28564;53.346;-6.554;2023-09-19T06:22:03;98522.37;;;18.41;58.40
40372;BME280;28564;53.346;-6.554;2023-09-19T06:24:31;98523.87;;;18.64;58.55
40372;BME280;28564;53.346;-6.554;2023-09-19T06:26:58;98521.06;;;18.54;58.41
40372;BME280;28564;53.346;-6.554;2023-09-19T06:29:25;98532.77;;;18.77;58.57
40372;BME280;28564;53.346;-6.554;2023-09-19T06:31:52;98525.58;;;18.82;58.80
40372;BME280;28564;53.346;-6.554;2023-09-19T06:34:19;98531.07;;;18.87;58.77
40372;BME280;28564;53.346;-6.554;2023-09-19T06:36:46;98531.98;;;18.57;59.06
40372;BME280;28564;53.346;-6.554;2023-09-19T06:39:13;98508.03;;;18.82;59.17
40372;BME280;28564;53.346;-6.554;2023-09-19T06:41:40;98521.47;;;18.67;59.10
40372;BME280;28564;53.346;-6.554;2023-09-19T06:44:07;98518.55;;;18.93;59.16
40372;BME280;28564;53.346;-6.554;2023-09-19T06:46:34;98525.87;;;18.97;59.17
40372;BME280;28564;53.346;-6.554;2023-09-19T06:49:01;98539.91;;;19.01;59.23
40372;BME280;28564;53.346;-6.554;2023-09-19T06:51:28;98545.51;;;18.99;59.34
40372;BME280;28564;53.346;-6.554;2023-09-19T06:53:55;98549.78;;;18.88;59.28
40372;BME280;28564;53.346;-6.554;2023-09-19T06:56:22;98550.60;;;18.85;59.48
40372;BME280;28564;53.346;-6.554;2023-09-19T06:58:49;98557.11;;;18.91;59.46
40372;BME280;28564;53.346;-6.554;2023-09-19T07:01:16;98556.57;;;19.03;59.34
40372;BME280;28564;53.346;-6.554;2023-09-19T07:03:43;98560.11;;;19.16;59.57
40372;BME280;28564;53.346;-6.554;2023-09-19T07:06:10;98549.14;;;18.67;59.77
40372;BME280;28564;53.346;-6.554;2023-09-19T07:08:37;98564.05;;;19.20;59.71
40372;BME280;28564;53.346;-6.554;2023-09-19T07:11:04;98565.53;;;19.05;59.65
40372;BME280;28564;53.346;-6.554;2023-09-19T07:13:32;98561.80;;;18.86;59.72
40372;BME280;28564;53.346;-6.554;2023-09-19T07:15:59;98568.05;;;19.00;59.46
40372;BME280;28564;53.346;-6.554;2023-09-19T07:18:26;98569.64;;;19.15;59.66
40372;BME280;28564;53.346;-6.554;2023-09-19T07:20:57;98587.04;;;18.88;59.92
40372;BME280;28564;53.346;-6.554;2023-09-19T07:23:25;98575.35;;;19.08;59.57
40372;BME280;28564;53.346;-6.554;2023-09-19T07:25:52;98585.28;;;19.15;59.50
40372;BME280;28564;53.346;-6.554;2023-09-19T07:28:23;98582.38;;;19.18;59.39
40372;BME280;28564;53.346;-6.554;2023-09-19T07:30:50;98582.41;;;19.34;59.14
40372;BME280;28564;53.346;-6.554;2023-09-19T07:33:17;98593.92;;;19.41;59.09
40372;BME280;28564;53.346;-6.554;2023-09-19T07:35:46;98609.76;;;19.39;59.16
40372;BME280;28564;53.346;-6.554;2023-09-19T07:38:13;98600.75;;;19.58;58.92
40372;BME280;28564;53.346;-6.554;2023-09-19T07:40:41;98599.68;;;19.64;58.88
40372;BME280;28564;53.346;-6.554;2023-09-19T07:43:08;98607.94;;;19.51;58.76
40372;BME280;28564;53.346;-6.554;2023-09-19T07:45:35;98610.85;;;19.89;58.53
40372;BME280;28564;53.346;-6.554;2023-09-19T07:48:02;98607.89;;;19.82;58.66
40372;BME280;28564;53.346;-6.554;2023-09-19T07:50:30;98606.38;;;19.93;58.52
40372;BME280;28564;53.346;-6.554;2023-09-19T07:52:57;98606.65;;;19.78;58.42
40372;BME280;28564;53.346;-6.554;2023-09-19T07:55:25;98615.42;;;19.86;58.24
40372;BME280;28564;53.346;-6.554;2023-09-19T07:57:52;98612.65;;;19.94;58.07
40372;BME280;28564;53.346;-6.554;2023-09-19T08:00:19;98616.50;;;19.89;58.06
40372;BME280;28564;53.346;-6.554;2023-09-19T08:02:46;98613.87;;;20.04;57.92
40372;BME280;28564;53.346;-6.554;2023-09-19T08:05:13;98611.87;;;19.98;57.92
40372;BME280;28564;53.346;-6.554;2023-09-19T08:07:42;98609.67;;;20.12;57.73
40372;BME280;28564;53.346;-6.554;2023-09-19T08:10:10;98613.57;;;19.94;57.67
40372;BME280;28564;53.346;-6.554;2023-09-19T08:12:37;98609.60;;;20.25;57.66
40372;BME280;28564;53.346;-6.554;2023-09-19T08:15:05;98613.97;;;19.97;57.65
40372;BME280;28564;53.346;-6.554;2023-09-19T08:17:34;98618.54;;;20.32;57.52
40372;BME280;28564;53.346;-6.554;2023-09-19T08:20:02;98612.45;;;20.64;57.36
40372;BME280;28564;53.346;-6.554;2023-09-19T08:22:29;98622.30;;;20.47;57.18
40372;BME280;28564;53.346;-6.554;2023-09-19T08:24:56;98621.79;;;20.29;57.14
40372;BME280;28564;53.346;-6.554;2023-09-19T08:27:24;98629.93;;;20.64;56.96
40372;BME280;28564;53.346;-6.554;2023-09-19T08:29:51;98625.60;;;20.36;56.93
40372;BME280;28564;53.346;-6.554;2023-09-19T08:32:18;98620.66;;;20.52;56.77
40372;BME280;28564;53.346;-6.554;2023-09-19T08:34:46;98630.46;;;20.51;56.76
40372;BME280;28564;53.346;-6.554;2023-09-19T08:37:13;98620.57;;;20.56;56.72
40372;BME280;28564;53.346;-6.554;2023-09-19T08:39:40;98619.99;;;20.71;56.37
40372;BME280;28564;53.346;-6.554;2023-09-19T08:42:07;98616.22;;;20.56;56.19
40372;BME280;28564;53.346;-6.554;2023-09-19T08:44:36;98612.96;;;20.80;56.22
40372;BME280;28564;53.346;-6.554;2023-09-19T08:47:10;98621.08;;;20.86;56.10
40372;BME280;28564;53.346;-6.554;2023-09-19T08:49:43;98641.99;;;21.04;56.29
40372;BME280;28564;53.346;-6.554;2023-09-19T08:52:20;98621.39;;;20.88;56.27
40372;BME280;28564;53.346;-6.554;2023-09-19T08:54:49;98624.57;;;20.85;56.33
40372;BME280;28564;53.346;-6.554;2023-09-19T08:57:19;98629.42;;;20.84;56.42
40372;BME280;28564;53.346;-6.554;2023-09-19T08:59:48;98629.77;;;20.97;56.63
40372;BME280;28564;53.346;-6.554;2023-09-19T09:03:51;98635.04;;;20.57;56.01
40372;BME280;28564;53.346;-6.554;2023-09-19T09:06:20;98639.96;;;21.04;56.16
40372;BME280;28564;53.346;-6.554;2023-09-19T09:08:47;98657.63;;;20.80;56.60
40372;BME280;28564;53.346;-6.554;2023-09-19T09:11:15;98653.77;;;20.67;56.79
40372;BME280;28564;53.346;-6.554;2023-09-19T09:13:43;98653.64;;;20.67;56.94
40372;BME280;28564;53.346;-6.554;2023-09-19T09:16:11;98648.10;;;20.57;57.23
40372;BME280;28564;53.346;-6.554;2023-09-19T09:18:38;98655.10;;;20.67;57.29
40372;BME280;28564;53.346;-6.554;2023-09-19T09:21:06;98647.02;;;20.59;57.67
40372;BME280;28564;53.346;-6.554;2023-09-19T09:23:33;98654.55;;;20.63;57.57
40372;BME280;28564;53.346;-6.554;2023-09-19T09:26:00;98651.49;;;20.50;57.52
40372;BME280;28564;53.346;-6.554;2023-09-19T09:28:30;98650.33;;;20.68;57.67
40372;BME280;28564;53.346;-6.554;2023-09-19T09:30:57;98650.04;;;20.74;57.67
40372;BME280;28564;53.346;-6.554;2023-09-19T09:33:25;98651.79;;;20.90;57.38
40372;BME280;28564;53.346;-6.554;2023-09-19T09:35:54;98653.31;;;21.22;57.21
40372;BME280;28564;53.346;-6.554;2023-09-19T09:38:22;98639.43;;;21.38;56.90
40372;BME280;28564;53.346;-6.554;2023-09-19T09:40:51;98641.41;;;21.17;56.72
40372;BME280;28564;53.346;-6.554;2023-09-19T09:43:28;98631.58;;;21.37;56.43
40372;BME280;28564;53.346;-6.554;2023-09-19T09:46:14;98633.13;;;21.81;56.05
40372;BME280;28564;53.346;-6.554;2023-09-19T09:48:42;98632.95;;;21.70;55.83
40372;BME280;28564;53.346;-6.554;2023-09-19T09:51:10;98631.45;;;21.74;55.39
40372;BME280;28564;53.346;-6.554;2023-09-19T09:53:38;98632.02;;;21.76;55.28
40372;BME280;28564;53.346;-6.554;2023-09-19T09:56:06;98630.23;;;21.74;55.40
40372;BME280;28564;53.346;-6.554;2023-09-19T09:58:35;98630.13;;;21.63;55.25
40372;BME280;28564;53.346;-6.554;2023-09-19T10:01:03;98631.41;;;21.71;55.18
40372;BME280;28564;53.346;-6.554;2023-09-19T10:03:33;98638.01;;;21.92;55.12
40372;BME280;28564;53.346;-6.554;2023-09-19T10:06:00;98639.11;;;21.85;54.98
40372;BME280;28564;53.346;-6.554;2023-09-19T10:08:28;98644.50;;;21.78;54.79
40372;BME280;28564;53.346;-6.554;2023-09-19T10:10:55;98630.36;;;21.81;54.84
40372;BME280;28564;53.346;-6.554;2023-09-19T10:13:22;98648.13;;;21.82;54.97
40372;BME280;28564;53.346;-6.554;2023-09-19T10:15:54;98643.36;;;21.94;54.85
40372;BME280;28564;53.346;-6.554;2023-09-19T10:18:23;98646.19;;;21.82;54.83
40372;BME280;28564;53.346;-6.554;2023-09-19T10:20:51;98659.26;;;21.73;54.98
40372;BME280;28564;53.346;-6.554;2023-09-19T10:23:19;98659.70;;;21.68;55.06
40372;BME280;28564;53.346;-6.554;2023-09-19T10:25:47;98655.46;;;21.73;55.13
40372;BME280;28564;53.346;-6.554;2023-09-19T10:28:16;98657.53;;;21.92;55.00
40372;BME280;28564;53.346;-6.554;2023-09-19T10:30:45;98688.58;;;22.13;54.86
40372;BME280;28564;53.346;-6.554;2023-09-19T10:33:14;98675.41;;;21.95;54.25
40372;BME280;28564;53.346;-6.554;2023-09-19T10:35:43;98663.17;;;22.28;54.16
40372;BME280;28564;53.346;-6.554;2023-09-19T10:38:13;98660.59;;;22.40;54.11
40372;BME280;28564;53.346;-6.554;2023-09-19T10:40:41;98663.84;;;22.35;54.05
40372;BME280;28564;53.346;-6.554;2023-09-19T10:43:11;98665.16;;;22.38;53.90
40372;BME280;28564;53.346;-6.554;2023-09-19T10:45:40;98671.72;;;22.60;53.73
40372;BME280;28564;53.346;-6.554;2023-09-19T10:48:09;98675.82;;;22.46;53.81
40372;BME280;28564;53.346;-6.554;2023-09-19T10:50:43;98677.35;;;22.19;54.22
40372;BME280;28564;53.346;-6.554;2023-09-19T10:53:12;98679.32;;;21.82;54.80
40372;BME280;28564;53.346;-6.554;2023-09-19T10:55:40;98681.42;;;21.56;55.20
40372;BME280;28564;53.346;-6.554;2023-09-19T10:58:09;98681.83;;;21.57;55.80
40372;BME280;28564;53.346;-6.554;2023-09-19T11:00:54;98675.57;;;21.59;55.94
40372;BME280;28564;53.346;-6.554;2023-09-19T11:03:22;98679.41;;;21.45;55.95
40372;BME280;28564;53.346;-6.554;2023-09-19T11:06:11;98669.29;;;21.42;56.10
40372;BME280;28564;53.346;-6.554;2023-09-19T11:08:56;98680.50;;;21.29;56.26
40372;BME280;28564;53.346;-6.554;2023-09-19T11:11:55;98690.57;;;21.80;56.45
40372;BME280;28564;53.346;-6.554;2023-09-19T11:14:32;98678.23;;;21.24;56.34
40372;BME280;28564;53.346;-6.554;2023-09-19T11:17:37;98684.11;;;21.23;56.38
40372;BME280;28564;53.346;-6.554;2023-09-19T11:20:37;98675.93;;;21.32;56.55
40372;BME280;28564;53.346;-6.554;2023-09-19T11:23:36;98677.84;;;21.81;56.82
40372;BME280;28564;53.346;-6.554;2023-09-19T11:26:03;98681.05;;;21.28;57.01
40372;BME280;28564;53.346;-6.554;2023-09-19T11:28:32;98689.28;;;21.69;56.64
40372;BME280;28564;53.346;-6.554;2023-09-19T11:31:42;98685.89;;;21.66;56.78
40372;BME280;28564;53.346;-6.554;2023-09-19T11:34:44;98683.98;;;21.37;56.68
40372;BME280;28564;53.346;-6.554;2023-09-19T11:38:57;98691.63;;;22.02;56.74
40372;BME280;28564;53.346;-6.554;2023-09-19T11:41:40;98687.20;;;21.63;56.49
40372;BME280;28564;53.346;-6.554;2023-09-19T11:44:40;98703.10;;;21.66;56.35
40372;BME280;28564;53.346;-6.554;2023-09-19T11:47:08;98694.76;;;21.50;56.30
40372;BME280;28564;53.346;-6.554;2023-09-19T11:49:40;98703.01;;;21.66;56.14
40372;BME280;28564;53.346;-6.554;2023-09-19T11:52:08;98699.32;;;21.74;56.08
40372;BME280;28564;53.346;-6.554;2023-09-19T11:54:37;98698.82;;;21.98;56.09
40372;BME280;28564;53.346;-6.554;2023-09-19T11:57:05;98698.51;;;21.74;55.93
40372;BME280;28564;53.346;-6.554;2023-09-19T11:59:32;98689.56;;;21.98;55.53
40372;BME280;28564;53.346;-6.554;2023-09-19T12:02:03;98682.33;;;22.40;55.21
40372;BME280;28564;53.346;-6.554;2023-09-19T12:04:34;98672.38;;;22.73;55.02
40372;BME280;28564;53.346;-6.554;2023-09-19T12:07:02;98674.92;;;22.81;54.05
40372;BME280;28564;53.346;-6.554;2023-09-19T12:09:30;98674.94;;;22.74;53.68
40372;BME280;28564;53.346;-6.554;2023-09-19T12:11:57;98665.81;;;23.26;53.54
40372;BME280;28564;53.346;-6.554;2023-09-19T12:14:25;98670.14;;;23.00;52.67
40372;BME280;28564;53.346;-6.554;2023-09-19T12:16:54;98676.41;;;22.89;52.72
40372;BME280;28564;53.346;-6.554;2023-09-19T12:19:22;98667.87;;;22.53;52.92
40372;BME280;28564;53.346;-6.554;2023-09-19T12:21:59;98664.57;;;22.38;53.36
40372;BME280;28564;53.346;-6.554;2023-09-19T12:24:27;98673.20;;;22.57;53.63
40372;BME280;28564;53.346;-6.554;2023-09-19T12:26:55;98675.86;;;22.40;53.62
40372;BME280;28564;53.346;-6.554;2023-09-19T12:29:27;98679.48;;;22.28;54.00
40372;BME280;28564;53.346;-6.554;2023-09-19T12:31:55;98672.66;;;22.33;54.41
40372;BME280;28564;53.346;-6.554;2023-09-19T12:34:24;98690.63;;;22.33;54.43
40372;BME280;28564;53.346;-6.554;2023-09-19T12:37:04;98686.09;;;22.12;54.55
40372;BME280;28564;53.346;-6.554;2023-09-19T12:39:31;98684.02;;;22.07;54.27
40372;BME280;28564;53.346;-6.554;2023-09-19T12:41:59;98693.90;;;22.23;54.24
40372;BME280;28564;53.346;-6.554;2023-09-19T12:44:26;98688.42;;;21.98;53.92
40372;BME280;28564;53.346;-6.554;2023-09-19T12:46:54;98693.17;;;22.20;54.23
40372;BME280;28564;53.346;-6.554;2023-09-19T12:49:21;98690.26;;;21.71;54.43
40372;BME280;28564;53.346;-6.554;2023-09-19T12:51:48;98690.48;;;22.01;54.66
40372;BME280;28564;53.346;-6.554;2023-09-19T12:54:16;98692.36;;;21.95;54.86
40372;BME280;28564;53.346;-6.554;2023-09-19T12:56:45;98701.67;;;21.95;55.00
40372;BME280;28564;53.346;-6.554;2023-09-19T12:59:13;98698.85;;;21.67;55.16
40372;BME280;28564;53.346;-6.554;2023-09-19T13:01:42;98704.08;;;21.53;55.62
40372;BME280;28564;53.346;-6.554;2023-09-19T13:04:12;98699.52;;;21.56;55.65